createdAt,value
2022-09-10T00:01:30.309Z,15.25
2022-09-10T00:03:59.134Z,15.24
2022-09-10T00:06:28.281Z,15.24
2022-09-10T00:08:58.741Z,15.23
2022-09-10T00:11:31.762Z,15.22
2022-09-10T00:13:59.667Z,15.23
2022-09-10T00:16:29.003Z,15.23
2022-09-10T00:18:57.470Z,15.27
2022-09-10T00:21:25.954Z,15.28
2022-09-10T00:23:54.401Z,15.31
2022-09-10T00:26:27.313Z,15.33
2022-09-10T00:28:56.828Z,15.37
2022-09-10T00:31:25.559Z,15.41
2022-09-10T00:33:54.945Z,15.47
2022-09-10T00:36:25.646Z,15.54
2022-09-10T00:38:55.961Z,15.59
2022-09-10T00:41:25.982Z,15.64
2022-09-10T00:43:56.367Z,15.68
2022-09-10T00:46:30.755Z,15.71
2022-09-10T00:49:02.075Z,15.74
2022-09-10T00:51:34.585Z,15.74
2022-09-10T00:54:04.195Z,15.74
2022-09-10T00:56:34.930Z,15.76
2022-09-10T00:59:04.947Z,15.79
2022-09-10T01:01:33.835Z,15.80
2022-09-10T01:04:02.659Z,15.80
2022-09-10T01:06:31.217Z,15.82
2022-09-10T01:08:59.870Z,15.84
2022-09-10T01:11:42.469Z,15.86
2022-09-10T01:14:25.636Z,15.90
2022-09-10T01:17:04.556Z,15.93
2022-09-10T01:20:08.131Z,15.99
2022-09-10T01:22:51.590Z,16.03
2022-09-10T01:25:32.149Z,16.08
2022-09-10T01:28:08.277Z,16.13
2022-09-10T01:30:42.987Z,16.17
2022-09-10T01:33:17.872Z,16.20
2022-09-10T01:35:50.470Z,16.22
2022-09-10T01:38:23.223Z,16.24
2022-09-10T01:40:51.784Z,16.25
2022-09-10T01:43:22.740Z,16.27
2022-09-10T01:46:05.360Z,16.26
2022-09-10T01:48:55.993Z,16.26
2022-09-10T01:51:34.971Z,16.21
2022-09-10T01:54:25.461Z,16.20
2022-09-10T01:57:06.597Z,16.21
2022-09-10T01:59:44.472Z,16.22
2022-09-10T02:02:19.219Z,16.24
2022-09-10T02:04:48.294Z,16.26
2022-09-10T02:07:19.251Z,16.26
2022-09-10T02:09:47.510Z,16.26
2022-09-10T02:12:22.005Z,16.21
2022-09-10T02:14:55.288Z,16.16
2022-09-10T02:17:26.327Z,16.12
2022-09-10T02:19:56.231Z,16.08
2022-09-10T02:22:24.968Z,16.05
2022-09-10T02:24:53.236Z,16.01
2022-09-10T02:27:21.256Z,15.95
2022-09-10T02:29:49.570Z,15.91
2022-09-10T02:32:18.835Z,15.88
2022-09-10T02:34:46.889Z,15.86
2022-09-10T02:37:16.045Z,15.82
2022-09-10T02:39:44.966Z,15.79
2022-09-10T02:42:14.363Z,15.78
2022-09-10T02:44:42.408Z,15.77
2022-09-10T02:47:10.359Z,15.75
2022-09-10T02:49:39.765Z,15.74
2022-09-10T02:52:08.770Z,15.74
2022-09-10T02:54:37.068Z,15.75
2022-09-10T02:57:05.509Z,15.77
2022-09-10T02:59:33.924Z,15.74
2022-09-10T03:02:01.917Z,15.75
2022-09-10T03:04:29.969Z,15.78
2022-09-10T03:06:59.364Z,15.79
2022-09-10T03:09:29.038Z,15.83
2022-09-10T03:11:57.068Z,15.84
2022-09-10T03:14:25.882Z,15.85
2022-09-10T03:16:53.892Z,15.87
2022-09-10T03:19:22.061Z,15.90
2022-09-10T03:21:50.056Z,15.92
2022-09-10T03:24:19.453Z,15.95
2022-09-10T03:26:47.597Z,15.97
2022-09-10T03:29:16.041Z,15.97
2022-09-10T03:31:46.447Z,15.97
2022-09-10T03:34:14.727Z,15.99
2022-09-10T03:36:42.755Z,16.00
2022-09-10T03:39:10.719Z,16.03
2022-09-10T03:41:40.214Z,16.05
2022-09-10T03:44:08.429Z,16.06
2022-09-10T03:46:37.726Z,16.06
2022-09-10T03:49:05.725Z,16.06
2022-09-10T03:51:34.149Z,16.06
2022-09-10T03:54:02.611Z,16.08
2022-09-10T03:56:30.613Z,16.08
2022-09-10T03:59:00.554Z,16.06
2022-09-10T04:01:28.790Z,16.07
2022-09-10T04:03:58.295Z,16.05
2022-09-10T04:06:26.290Z,15.99
2022-09-10T04:08:54.366Z,15.94
2022-09-10T04:11:24.334Z,15.91
2022-09-10T04:13:52.536Z,15.89
2022-09-10T04:16:23.511Z,15.88
2022-09-10T04:18:51.814Z,15.89
2022-09-10T04:21:20.374Z,15.88
2022-09-10T04:23:48.516Z,15.87
2022-09-10T04:26:18.394Z,15.88
2022-09-10T04:28:46.952Z,15.88
2022-09-10T04:31:14.881Z,15.86
2022-09-10T04:33:44.976Z,15.83
2022-09-10T04:36:14.284Z,15.85
2022-09-10T04:38:43.449Z,15.86
2022-09-10T04:41:12.206Z,15.88
2022-09-10T04:43:40.890Z,15.85
2022-09-10T04:46:08.954Z,15.80
2022-09-10T04:48:36.911Z,15.75
2022-09-10T04:51:16.307Z,15.71
2022-09-10T04:53:44.931Z,15.70
2022-09-10T04:56:13.413Z,15.67
2022-09-10T04:58:42.275Z,15.64
2022-09-10T05:01:10.585Z,15.61
2022-09-10T05:03:38.940Z,15.58
2022-09-10T05:06:08.584Z,15.55
2022-09-10T05:08:36.814Z,15.48
2022-09-10T05:11:05.190Z,15.45
2022-09-10T05:13:33.180Z,15.43
2022-09-10T05:16:01.795Z,15.42
2022-09-10T05:18:29.708Z,15.42
2022-09-10T05:20:57.631Z,15.43
2022-09-10T05:23:27.365Z,15.45
2022-09-10T05:25:56.791Z,15.47
2022-09-10T05:28:25.123Z,15.47
2022-09-10T05:30:53.116Z,15.49
2022-09-10T05:33:21.482Z,15.47
2022-09-10T05:35:51.803Z,15.48
2022-09-10T05:38:21.450Z,15.46
2022-09-10T05:40:51.137Z,15.43
2022-09-10T05:43:19.087Z,15.42
2022-09-10T05:45:49.719Z,15.40
2022-09-10T05:48:17.766Z,15.41
2022-09-10T05:50:46.570Z,15.41
2022-09-10T05:53:14.921Z,15.43
2022-09-10T05:55:44.468Z,15.44
2022-09-10T05:58:15.073Z,15.43
2022-09-10T06:00:44.079Z,15.45
2022-09-10T06:03:13.758Z,15.48
2022-09-10T06:05:42.007Z,15.53
2022-09-10T06:08:10.524Z,15.57
2022-09-10T06:10:38.673Z,15.62
2022-09-10T06:13:07.932Z,15.69
2022-09-10T06:15:38.042Z,15.73
2022-09-10T06:18:06.084Z,15.77
2022-09-10T06:20:34.165Z,15.82
2022-09-10T06:23:02.128Z,15.89
2022-09-10T06:25:31.243Z,15.96
2022-09-10T06:27:59.152Z,16.04
2022-09-10T06:30:27.259Z,16.08
2022-09-10T06:32:57.570Z,16.10
2022-09-10T06:35:27.232Z,16.14
2022-09-10T06:37:56.140Z,16.22
2022-09-10T06:40:27.771Z,16.34
2022-09-10T06:42:55.773Z,16.45
2022-09-10T06:45:24.220Z,16.53
2022-09-10T06:48:37.019Z,16.57
2022-09-10T06:50:51.666Z,16.54
2022-09-10T06:53:22.166Z,16.50
2022-09-10T06:55:50.892Z,16.48
2022-09-10T06:58:20.075Z,16.48
2022-09-10T07:00:48.656Z,16.51
2022-09-10T07:03:17.564Z,16.50
2022-09-10T07:05:47.824Z,16.53
2022-09-10T07:08:17.789Z,16.57
2022-09-10T07:10:46.833Z,16.61
2022-09-10T07:13:15.075Z,16.63
2022-09-10T07:15:46.837Z,16.63
2022-09-10T07:18:24.136Z,16.63
2022-09-10T07:20:54.030Z,16.67
2022-09-10T07:23:40.798Z,16.73
2022-09-10T07:26:11.516Z,16.81
2022-09-10T07:28:42.451Z,16.88
2022-09-10T07:31:15.758Z,16.92
2022-09-10T07:33:44.003Z,16.96
2022-09-10T07:36:13.615Z,17.06
2022-09-10T07:38:42.889Z,17.20
2022-09-10T07:41:13.346Z,17.32
2022-09-10T07:43:41.771Z,17.47
2022-09-10T07:46:13.691Z,17.60
2022-09-10T07:48:41.738Z,17.65
2022-09-10T07:51:11.191Z,17.65
2022-09-10T07:53:49.990Z,17.56
2022-09-10T07:56:18.320Z,17.46
2022-09-10T07:58:46.372Z,17.38
2022-09-10T08:01:16.193Z,17.31
2022-09-10T08:03:45.030Z,17.25
2022-09-10T08:06:13.385Z,17.21
2022-09-10T08:08:43.216Z,17.12
2022-09-10T08:11:13.669Z,17.05
2022-09-10T08:13:42.534Z,16.99
2022-09-10T08:16:15.541Z,17.00
2022-09-10T08:18:44.777Z,17.10
2022-09-10T08:21:13.726Z,17.18
2022-09-10T08:23:44.916Z,17.23
2022-09-10T08:26:12.889Z,17.21
2022-09-10T08:28:43.348Z,17.20
2022-09-10T08:31:13.027Z,17.24
2022-09-10T08:33:41.405Z,17.42
2022-09-10T08:36:12.298Z,17.56
2022-09-10T08:38:45.694Z,17.56
2022-09-10T08:41:28.262Z,17.49
2022-09-10T08:44:01.179Z,17.43
2022-09-10T08:46:33.483Z,17.46
2022-09-10T08:49:08.425Z,17.49
2022-09-10T08:51:45.491Z,17.58
2022-09-10T08:54:18.049Z,17.67
2022-09-10T08:56:47.534Z,17.78
2022-09-10T08:59:22.702Z,17.89
2022-09-10T09:01:55.033Z,17.96
2022-09-10T09:04:33.154Z,18.00
2022-09-10T09:07:04.546Z,17.98
2022-09-10T09:09:33.938Z,17.87
2022-09-10T09:12:14.404Z,17.75
2022-09-10T09:14:56.606Z,17.63
2022-09-10T09:17:37.474Z,17.53
2022-09-10T09:20:18.126Z,17.45
2022-09-10T09:22:53.309Z,17.47
2022-09-10T09:25:31.459Z,17.58
2022-09-10T09:27:59.777Z,17.74
2022-09-10T09:30:34.100Z,17.97
2022-09-10T09:33:12.410Z,18.20
2022-09-10T09:35:47.555Z,18.27
2022-09-10T09:38:22.357Z,18.22
2022-09-10T09:40:56.442Z,18.14
2022-09-10T09:43:34.090Z,18.04
2022-09-10T09:46:03.420Z,17.99
2022-09-10T09:48:38.833Z,18.04
2022-09-10T09:51:11.616Z,18.19
2022-09-10T09:53:42.300Z,18.26
2022-09-10T09:56:22.404Z,18.25
2022-09-10T09:58:52.105Z,18.26
2022-09-10T10:01:23.126Z,18.33
2022-09-10T10:03:58.780Z,18.44
2022-09-10T10:06:29.704Z,18.68
2022-09-10T10:09:03.608Z,18.76
2022-09-10T10:11:47.257Z,18.69
2022-09-10T10:14:24.832Z,18.73
2022-09-10T10:16:57.356Z,18.93
2022-09-10T10:19:34.211Z,19.13
2022-09-10T10:22:25.122Z,19.21
2022-09-10T10:24:54.449Z,19.17
2022-09-10T10:27:33.036Z,19.10
2022-09-10T10:30:04.690Z,19.11
2022-09-10T10:32:44.729Z,19.10
2022-09-10T10:35:32.832Z,19.11
2022-09-10T10:38:26.470Z,19.14
2022-09-10T10:41:08.247Z,19.11
2022-09-10T10:43:51.963Z,19.33
2022-09-10T10:46:23.077Z,19.54
2022-09-10T10:49:03.822Z,19.59
2022-09-10T10:51:41.597Z,19.54
2022-09-10T10:54:35.283Z,19.47
2022-09-10T10:57:17.736Z,19.31
2022-09-10T10:59:55.084Z,19.30
2022-09-10T11:02:34.901Z,19.49
2022-09-10T11:05:17.026Z,19.76
2022-09-10T11:07:45.839Z,19.86
2022-09-10T11:10:21.103Z,19.97
2022-09-10T11:12:53.624Z,20.18
2022-09-10T11:15:33.487Z,20.39
2022-09-10T11:18:08.543Z,20.57
2022-09-10T11:20:42.525Z,20.41
2022-09-10T11:23:20.719Z,20.31
2022-09-10T11:25:56.579Z,20.40
2022-09-10T11:28:30.055Z,20.45
2022-09-10T11:31:07.818Z,20.41
2022-09-10T11:33:44.231Z,20.39
2022-09-10T11:36:18.520Z,20.34
2022-09-10T11:38:55.731Z,20.45
2022-09-10T11:41:25.271Z,20.52
2022-09-10T11:44:00.714Z,20.57
2022-09-10T11:46:35.562Z,20.62
2022-09-10T11:49:10.439Z,20.79
2022-09-10T11:51:40.012Z,20.86
2022-09-10T11:54:13.453Z,20.91
2022-09-10T11:56:59.680Z,20.95
2022-09-10T11:59:51.778Z,21.03
2022-09-10T12:02:59.308Z,21.17
2022-09-10T12:05:36.691Z,21.28
2022-09-10T12:08:17.627Z,21.27
2022-09-10T12:10:54.280Z,21.50
2022-09-10T12:13:23.119Z,21.67
2022-09-10T12:15:56.064Z,21.80
2022-09-10T12:18:29.171Z,22.02
2022-09-10T12:21:02.639Z,22.15
2022-09-10T12:23:33.664Z,22.32
2022-09-10T12:26:07.324Z,22.26
2022-09-10T12:29:06.724Z,22.29
2022-09-10T12:32:12.318Z,22.51
2022-09-10T12:34:42.360Z,22.64
2022-09-10T12:37:27.880Z,22.78
2022-09-10T12:40:49.684Z,22.95
2022-09-10T12:43:54.092Z,23.03
2022-09-10T12:46:25.787Z,23.02
2022-09-10T12:49:11.860Z,22.96
2022-09-10T12:51:58.013Z,23.04
2022-09-10T12:54:45.788Z,22.93
2022-09-10T12:57:40.420Z,23.05
2022-09-10T13:00:17.973Z,23.18
2022-09-10T13:02:52.077Z,23.32
2022-09-10T13:05:27.319Z,23.37
2022-09-10T13:08:12.579Z,23.45
2022-09-10T13:10:42.266Z,23.46
2022-09-10T13:13:34.410Z,23.60
2022-09-10T13:16:03.754Z,23.72
2022-09-10T13:18:33.932Z,23.80
2022-09-10T13:21:51.097Z,24.04
2022-09-10T13:24:59.815Z,24.25
2022-09-10T13:27:38.969Z,24.42
2022-09-10T13:30:17.790Z,24.43
2022-09-10T13:32:52.195Z,24.55
2022-09-10T13:35:47.315Z,24.62
2022-09-10T13:38:30.004Z,24.63
2022-09-10T13:41:27.373Z,24.64
2022-09-10T13:44:21.526Z,24.81
2022-09-10T13:46:55.123Z,24.95
2022-09-10T13:49:31.275Z,25.14
2022-09-10T13:52:02.228Z,25.13
2022-09-10T13:54:35.685Z,25.28
2022-09-10T13:57:13.595Z,25.45
2022-09-10T13:59:42.905Z,25.27
2022-09-10T14:02:10.811Z,25.07
2022-09-10T14:04:44.745Z,24.80
2022-09-10T14:07:16.202Z,24.66
2022-09-10T14:09:46.575Z,24.71
2022-09-10T14:12:19.216Z,24.80
2022-09-10T14:14:51.634Z,24.93
2022-09-10T14:17:23.544Z,25.14
2022-09-10T14:19:57.967Z,25.14
2022-09-10T14:22:27.170Z,25.22
2022-09-10T14:24:56.512Z,25.15
2022-09-10T14:27:28.480Z,25.21
2022-09-10T14:29:57.764Z,25.24
2022-09-10T14:32:30.807Z,25.04
2022-09-10T14:34:59.395Z,24.75
2022-09-10T14:37:45.234Z,24.49
2022-09-10T14:40:19.236Z,24.29
2022-09-10T14:42:49.726Z,24.27
2022-09-10T14:45:40.058Z,24.31
2022-09-10T14:48:28.557Z,24.04
2022-09-10T14:51:18.801Z,23.83
2022-09-10T14:53:51.054Z,23.69
2022-09-10T14:56:24.782Z,23.53
2022-09-10T14:58:59.312Z,23.49
2022-09-10T15:01:27.237Z,23.47
2022-09-10T15:03:55.289Z,23.51
2022-09-10T15:06:26.367Z,23.45
2022-09-10T15:08:56.888Z,23.44
2022-09-10T15:11:27.290Z,23.40
2022-09-10T15:13:59.257Z,23.20
2022-09-10T15:16:27.644Z,23.05
2022-09-10T15:18:55.604Z,22.80
2022-09-10T15:21:23.519Z,22.68
2022-09-10T15:23:51.935Z,22.54
2022-09-10T15:26:19.869Z,22.51
2022-09-10T15:28:47.804Z,22.38
2022-09-10T15:31:28.455Z,22.29
2022-09-10T15:33:58.650Z,22.36
2022-09-10T15:36:28.354Z,22.45
2022-09-10T15:38:59.741Z,22.40
2022-09-10T15:41:27.965Z,22.44
2022-09-10T15:43:55.882Z,22.57
2022-09-10T15:46:25.302Z,22.67
2022-09-10T15:48:53.785Z,22.84
2022-09-10T15:51:23.875Z,22.88
2022-09-10T15:53:53.639Z,23.01
2022-09-10T15:56:24.218Z,23.11
2022-09-10T15:58:55.090Z,23.15
2022-09-10T16:01:25.150Z,23.21
2022-09-10T16:03:56.418Z,23.08
2022-09-10T16:06:27.377Z,23.01
2022-09-10T16:08:57.789Z,22.89
2022-09-10T16:11:26.472Z,22.69
2022-09-10T16:13:54.659Z,22.66
2022-09-10T16:16:24.350Z,22.65
2022-09-10T16:18:55.607Z,22.49
2022-09-10T16:21:26.248Z,22.37
2022-09-10T16:23:56.737Z,22.27
2022-09-10T16:26:27.619Z,22.14
2022-09-10T16:28:57.171Z,22.07
2022-09-10T16:31:26.968Z,21.91
2022-09-10T16:33:58.628Z,21.76
2022-09-10T16:36:27.215Z,21.68
2022-09-10T16:38:56.865Z,21.62
2022-09-10T16:41:26.933Z,21.53
2022-09-10T16:43:56.793Z,21.39
2022-09-10T16:46:25.014Z,21.31
2022-09-10T16:48:54.587Z,21.25
2022-09-10T16:51:25.795Z,21.19
2022-09-10T16:53:56.972Z,21.20
2022-09-10T16:56:26.103Z,21.18
2022-09-10T16:58:54.110Z,21.15
2022-09-10T17:01:22.096Z,21.23
2022-09-10T17:03:50.804Z,21.39
2022-09-10T17:06:20.157Z,21.60
2022-09-10T17:08:50.144Z,21.89
2022-09-10T17:11:19.682Z,22.07
2022-09-10T17:13:48.268Z,22.24
2022-09-10T17:16:25.715Z,22.54
2022-09-10T17:18:58.111Z,22.79
2022-09-10T17:21:26.847Z,22.98
2022-09-10T17:23:57.250Z,23.04
2022-09-10T17:26:25.368Z,23.08
2022-09-10T17:28:55.060Z,23.07
2022-09-10T17:31:27.516Z,23.03
2022-09-10T17:33:56.715Z,22.78
2022-09-10T17:36:28.227Z,22.42
2022-09-10T17:38:59.382Z,22.11
2022-09-10T17:41:28.106Z,21.86
2022-09-10T17:43:56.698Z,21.66
2022-09-10T17:46:25.403Z,21.47
2022-09-10T17:48:54.695Z,21.26
2022-09-10T17:51:24.491Z,21.12
2022-09-10T17:53:54.028Z,20.95
2022-09-10T17:56:25.239Z,20.76
2022-09-10T17:58:57.180Z,20.60
2022-09-10T18:01:26.895Z,20.49
2022-09-10T18:03:55.887Z,20.40
2022-09-10T18:06:25.231Z,20.34
2022-09-10T18:08:53.744Z,20.27
2022-09-10T18:11:27.168Z,20.16
2022-09-10T18:13:57.204Z,20.02
2022-09-10T18:16:27.914Z,19.89
2022-09-10T18:18:58.323Z,19.78
2022-09-10T18:21:29.513Z,19.68
2022-09-10T18:24:00.289Z,19.55
2022-09-10T18:26:31.623Z,19.44
2022-09-10T18:29:02.064Z,19.35
2022-09-10T18:31:32.345Z,19.21
2022-09-10T18:34:01.911Z,19.11
2022-09-10T18:36:30.500Z,18.98
2022-09-10T18:38:58.957Z,18.89
2022-09-10T18:41:28.139Z,18.82
2022-09-10T18:43:59.788Z,18.77
2022-09-10T18:46:29.160Z,18.69
2022-09-10T18:48:57.870Z,18.63
2022-09-10T18:51:27.794Z,18.56
2022-09-10T18:53:58.300Z,18.50
2022-09-10T18:56:27.512Z,18.45
2022-09-10T18:58:58.829Z,18.44
2022-09-10T19:01:29.321Z,18.42
2022-09-10T19:03:58.066Z,18.43
2022-09-10T19:06:28.911Z,18.41
2022-09-10T19:08:59.058Z,18.41
2022-09-10T19:11:33.469Z,18.40
2022-09-10T19:14:04.913Z,18.37
2022-09-10T19:16:35.120Z,18.32
2022-09-10T19:19:05.479Z,18.27
2022-09-10T19:21:35.376Z,18.20
2022-09-10T19:24:04.361Z,18.18
2022-09-10T19:26:34.480Z,18.15
2022-09-10T19:29:05.659Z,18.13
2022-09-10T19:31:35.977Z,18.12
2022-09-10T19:34:09.338Z,18.10
2022-09-10T19:36:37.453Z,18.07
2022-09-10T19:39:07.457Z,18.04
2022-09-10T19:41:36.779Z,18.00
2022-09-10T19:44:08.333Z,17.95
2022-09-10T19:46:38.944Z,17.91
2022-09-10T19:49:10.142Z,17.86
2022-09-10T19:51:39.457Z,17.82
2022-09-10T19:54:07.919Z,17.76
2022-09-10T19:56:38.169Z,17.71
2022-09-10T19:59:08.913Z,17.67
2022-09-10T20:01:39.236Z,17.64
2022-09-10T20:04:09.062Z,17.62
2022-09-10T20:06:37.744Z,17.59
2022-09-10T20:09:07.716Z,17.54
2022-09-10T20:11:36.116Z,17.51
2022-09-10T20:14:08.142Z,17.49
2022-09-10T20:16:39.065Z,17.47
2022-09-10T20:19:08.125Z,17.45
2022-09-10T20:21:37.559Z,17.42
2022-09-10T20:24:08.040Z,17.40
2022-09-10T20:26:41.066Z,17.36
2022-09-10T20:29:12.644Z,17.34
2022-09-10T20:31:43.732Z,17.31
2022-09-10T20:34:13.709Z,17.28
2022-09-10T20:36:42.297Z,17.27
2022-09-10T20:39:11.725Z,17.24
2022-09-10T20:41:40.946Z,17.21
2022-09-10T20:44:09.128Z,17.19
2022-09-10T20:46:38.150Z,17.16
2022-09-10T20:49:07.649Z,17.11
2022-09-10T20:51:38.357Z,17.09
2022-09-10T20:54:08.563Z,17.07
2022-09-10T20:56:36.598Z,17.05
2022-09-10T20:59:04.890Z,16.99
2022-09-10T21:01:33.187Z,16.95
2022-09-10T21:04:03.129Z,16.92
2022-09-10T21:06:34.591Z,16.90
2022-09-10T21:09:03.371Z,16.87
2022-09-10T21:11:33.693Z,16.83
2022-09-10T21:14:03.310Z,16.81
2022-09-10T21:16:33.302Z,16.78
2022-09-10T21:19:02.478Z,16.77
2022-09-10T21:21:34.283Z,16.75
2022-09-10T21:24:03.465Z,16.73
2022-09-10T21:26:35.487Z,16.69
2022-09-10T21:29:06.384Z,16.66
2022-09-10T21:31:36.714Z,16.63
2022-09-10T21:34:05.806Z,16.61
2022-09-10T21:36:37.586Z,16.60
2022-09-10T21:39:09.959Z,16.59
2022-09-10T21:41:40.646Z,16.57
2022-09-10T21:44:14.292Z,16.54
2022-09-10T21:46:43.020Z,16.52
2022-09-10T21:49:11.411Z,16.50
2022-09-10T21:51:41.464Z,16.47
2022-09-10T21:54:14.402Z,16.43
2022-09-10T21:56:42.626Z,16.38
2022-09-10T21:59:12.346Z,16.34
2022-09-10T22:01:43.921Z,16.32
2022-09-10T22:04:12.684Z,16.31
2022-09-10T22:06:42.709Z,16.30
2022-09-10T22:09:12.753Z,16.29
2022-09-10T22:11:43.186Z,16.26
2022-09-10T22:14:16.098Z,16.24
2022-09-10T22:16:45.560Z,16.22
2022-09-10T22:19:15.909Z,16.21
2022-09-10T22:21:45.433Z,16.20
2022-09-10T22:24:17.468Z,16.21
2022-09-10T22:26:46.052Z,16.19
2022-09-10T22:29:16.496Z,16.18
2022-09-10T22:31:44.584Z,16.19
2022-09-10T22:34:14.645Z,16.17
2022-09-10T22:36:45.886Z,16.16
2022-09-10T22:39:16.241Z,16.15
2022-09-10T22:41:45.371Z,16.13
2022-09-10T22:44:13.425Z,16.08
2022-09-10T22:46:43.138Z,16.02
2022-09-10T22:49:11.481Z,15.98
2022-09-10T22:51:42.041Z,15.94
2022-09-10T22:54:11.856Z,15.91
2022-09-10T22:56:40.267Z,15.90
2022-09-10T22:59:12.249Z,15.86
2022-09-10T23:01:41.109Z,15.83
2022-09-10T23:04:12.557Z,15.80
2022-09-10T23:06:41.211Z,15.81
2022-09-10T23:09:12.772Z,15.79
2022-09-10T23:11:42.392Z,15.77
2022-09-10T23:14:13.533Z,15.74
2022-09-10T23:16:43.356Z,15.73
2022-09-10T23:19:14.225Z,15.74
2022-09-10T23:21:43.677Z,15.74
2022-09-10T23:24:16.056Z,15.75
2022-09-10T23:26:45.053Z,15.75
2022-09-10T23:29:17.107Z,15.74
2022-09-10T23:31:46.232Z,15.75
2022-09-10T23:34:16.117Z,15.74
2022-09-10T23:36:46.948Z,15.71
2022-09-10T23:39:19.844Z,15.70
2022-09-10T23:41:48.434Z,15.66
2022-09-10T23:44:17.084Z,15.62
2022-09-10T23:46:45.759Z,15.60
2022-09-10T23:49:13.839Z,15.60
2022-09-10T23:51:42.244Z,15.59
2022-09-10T23:54:10.857Z,15.57
2022-09-10T23:56:40.778Z,15.56
2022-09-10T23:59:09.334Z,15.56
